AZ1195 / EI-IMB 7700 Squawk Report (28th of January, 2020)

Aircraft A319 Reg No. EI-IMB Age 16 years old
Model A319 Jet engines 2 First flight 07-08-03
Registered 23-11-10 Rollout 08-03 Delivered 23-09-03
Construction No. 2033 Line No. N/A Series 112
ADSHEX 4CA8F4 Airline name Alitalia Owner N/A
Airfield based Rome-Fiumicino~Lazio~I First tracked 2017-07-13 07:43:00

Flight history for EI-IMB

Route Flight No Date Playback
Linate (LIN) - Fiumicino (FCO) AZ2097 2020-02-16 18:05:00
Capodichino (NAP) - Linate (LIN) AZ1286 2020-02-16 17:12:00
Linate (LIN) - Capodichino (NAP) AZ1285 2020-02-16 08:57:00
Elmas (CAG) - Linate (LIN) AZ1561 2020-02-16 06:40:00
Linate (LIN) - Elmas (CAG) AZ1574 2020-02-15 22:07:00
Palermo (PMO) - Linate (LIN) AZ1790 2020-02-15 21:03:00
Linate (LIN) - Palermo (PMO) AZ1793 2020-02-15 18:16:00
Charles De Gaulle (CDG) - Linate (LIN) AZ305 2020-02-15 09:32:00
Linate (LIN) - Charles De Gaulle (CDG) AZ300 2020-02-15 08:12:00
Capodichino (NAP) - Linate (LIN) AZ1298 2020-02-14 21:30:00
Linate (LIN) - Capodichino (NAP) AZ1295 2020-02-14 19:37:00
Fiumicino (FCO) - Linate (LIN) AZ2088 2020-02-14 17:20:00
Malpensa (MXP) - Fiumicino (FCO) AZ1019 2020-02-14 16:18:00
Fiumicino (FCO) - Malpensa (MXP) AZ1024 2020-02-14 09:29:00
Bari (BRI) - Fiumicino (FCO) AZ1608 2020-02-14 07:09:00
Linate (LIN) - Bari (BRI) AZ1645 2020-02-13 22:24:00
Schiphol (AMS) - Linate (LIN) AZ113 2020-02-13 19:57:00
Linate (LIN) - Schiphol (AMS) AZ112 2020-02-13 18:42:00
Lamezia Terme (SUF) - Linate (LIN) AZ1174 2020-02-13 13:51:00
Linate (LIN) - Lamezia Terme (SUF) AZ1179 2020-02-13 12:37:00
Time Lat Lon Altitude Heading Speed Vertical Rate
2020-01-28 13:40:22 GMT 39.359592 14.891357 25,200 151 442 -2368
2020-01-28 13:40:00 GMT 39.400230 14.863037 26,075 151 452 -2304
2020-01-28 13:39:56 GMT 39.408005 14.857605 26,250 151 453 -2304
2020-01-28 13:39:45 GMT 39.427643 14.843962 26,650 151 457 -2496
2020-01-28 13:39:35 GMT 39.447006 14.830409 27,100 151 460 -2624
2020-01-28 13:39:25 GMT 39.466049 14.817153 27,575 151 463 -2752
2020-01-28 13:39:15 GMT 39.484360 14.804435 28,025 151 464 -2688
2020-01-28 13:39:05 GMT 39.504227 14.790523 28,450 151 469 -2368
2020-01-28 13:38:55 GMT 39.523544 14.777029 28,900 151 472 -2560
2020-01-28 13:38:44 GMT 39.543240 14.763306 29,325 151 475 -2624
2020-01-28 13:38:34 GMT 39.562885 14.749573 29,775 151 477 -2560
2020-01-28 13:38:22 GMT 39.585846 14.733502 30,275 151 480 -2624
2020-01-28 13:38:14 GMT 39.602592 14.721741 30,700 151 481 -3072
2020-01-28 13:38:03 GMT 39.623154 14.707350 31,350 151 477 -4544
2020-01-28 13:37:58 GMT 39.634666 14.699280 31,850 151 469 -4416
2020-01-28 13:37:53 GMT 39.643890 14.692781 32,250 151 468 -3840
2020-01-28 13:37:45 GMT 39.661297 14.680664 32,750 151 465 -1984
2020-01-28 13:37:42 GMT 39.663811 14.678894 32,800 151 465 -1984
2020-01-28 13:37:36 GMT 39.674889 14.671143 32,925 151 466 -640
2020-01-28 13:37:32 GMT 39.682758 14.665649 32,975 151 468 -192
2020-01-28 13:37:26 GMT 39.693787 14.657971 33,000 151 470 64
2020-01-28 13:37:21 GMT 39.703720 14.650985 33,000 151 470 64
2020-01-28 13:37:16 GMT 39.713154 14.644348 32,975 151 471 64
2020-01-28 13:37:12 GMT 39.722279 14.637878 32,975 151 471 0
2020-01-28 13:37:06 GMT 39.732613 14.630615 32,975 151 471 -64
2020-01-28 13:37:01 GMT 39.743317 14.623101 33,000 151 470 -64
2020-01-28 13:36:57 GMT 39.751656 14.617249 33,000 151 469 -64
2020-01-28 13:36:53 GMT 39.757324 14.613249 33,000 151 468 -64
2020-01-28 13:36:50 GMT 39.763245 14.609070 33,000 151 468 -64
2020-01-28 13:36:46 GMT 39.771767 14.603088 33,025 151 466 -64
2020-01-28 13:36:41 GMT 39.780670 14.596830 33,025 151 466 -64
2020-01-28 13:36:36 GMT 39.790245 14.590088 33,025 151 466 0
2020-01-28 13:36:31 GMT 39.800217 14.583097 33,025 151 466 64
2020-01-28 13:36:23 GMT 39.815231 14.572469 33,000 151 466 64
2020-01-28 13:36:20 GMT 39.821156 14.568298 33,000 151 466 64
2020-01-28 13:36:13 GMT 39.834732 14.558736 33,000 151 468 64
2020-01-28 13:36:06 GMT 39.853683 14.545301 33,000 151 468 0
2020-01-28 13:35:58 GMT 39.861420 14.539808 33,000 151 468 0
2020-01-28 13:35:50 GMT 39.878368 14.527832 33,000 151 467 0
2020-01-28 13:35:42 GMT 39.893639 14.516968 33,000 151 466 0
2020-01-28 13:35:39 GMT 39.897549 14.514221 33,000 151 465 0
2020-01-28 13:35:33 GMT 39.910034 14.505356 33,000 151 465 0
2020-01-28 13:35:28 GMT 39.919521 14.498718 33,000 151 465 0
2020-01-28 13:35:24 GMT 39.927296 14.493214 33,000 151 465 0
2020-01-28 13:35:19 GMT 39.936539 14.486694 33,000 151 464 0
2020-01-28 13:35:14 GMT 39.946976 14.479309 33,000 151 464 0
2020-01-28 13:35:08 GMT 39.956577 14.472552 33,000 151 464 0
2020-01-28 13:35:01 GMT 39.970963 14.462341 33,000 151 464 0
2020-01-28 13:34:56 GMT 39.980133 14.455823 33,000 151 464 0
2020-01-28 13:34:51 GMT 39.989960 14.448853 33,000 151 464 0
2020-01-28 13:34:47 GMT 39.997101 14.443726 33,000 151 465 0
2020-01-28 13:34:43 GMT 40.004745 14.438293 33,000 151 465 0
2020-01-28 13:34:38 GMT 40.022217 14.425923 33,000 151 465 0
2020-01-28 13:34:34 GMT 40.022217 14.425923 33,000 151 465 0
2020-01-28 13:34:27 GMT 40.034729 14.417053 33,000 151 465 0
2020-01-28 13:34:24 GMT 40.041733 14.412048 33,000 151 465 0
2020-01-28 13:34:16 GMT 40.054756 14.402826 33,000 151 465 0
2020-01-28 13:34:11 GMT 40.064529 14.395874 33,000 151 465 0
2020-01-28 13:34:06 GMT 40.074402 14.388844 33,000 151 465 0
2020-01-28 13:34:02 GMT 40.082642 14.383039 33,000 151 465 0
2020-01-28 13:33:56 GMT 40.093208 14.375486 33,000 151 464 0
2020-01-28 13:33:53 GMT 40.099777 14.370850 33,000 151 464 0
2020-01-28 13:33:46 GMT 40.112247 14.361940 33,000 151 464 0
2020-01-28 13:33:42 GMT 40.119652 14.356634 33,000 151 464 0
2020-01-28 13:33:36 GMT 40.131519 14.348207 33,000 151 464 0
2020-01-28 13:33:32 GMT 40.138550 14.343213 33,000 151 462 0
2020-01-28 13:33:26 GMT 40.150608 14.334599 33,000 151 464 64
2020-01-28 13:33:22 GMT 40.158661 14.328856 33,000 151 464 64
2020-01-28 13:33:16 GMT 40.171097 14.319946 33,000 151 464 0
2020-01-28 13:33:12 GMT 40.176491 14.316059 33,000 151 464 0
2020-01-28 13:33:05 GMT 40.189728 14.306580 33,000 151 463 64
2020-01-28 13:33:01 GMT 40.196503 14.301758 33,000 151 463 64
2020-01-28 13:32:55 GMT 40.215225 14.288330 33,000 151 462 0
2020-01-28 13:32:51 GMT 40.215225 14.288330 33,000 151 462 0
2020-01-28 13:32:45 GMT 40.227768 14.279358 33,000 151 461 -64
2020-01-28 13:32:41 GMT 40.234406 14.274658 33,000 151 461 -64
2020-01-28 13:32:35 GMT 40.246078 14.266357 33,000 151 459 -64
2020-01-28 13:32:32 GMT 40.252991 14.261414 33,000 151 459 0
2020-01-28 13:32:25 GMT 40.265488 14.252441 33,000 151 459 -64
2020-01-28 13:32:21 GMT 40.272949 14.247131 33,000 151 458 0
2020-01-28 13:32:14 GMT 40.286499 14.237427 33,000 151 459 0
2020-01-28 13:32:10 GMT 40.292545 14.233100 33,000 151 459 64
2020-01-28 13:32:04 GMT 40.304043 14.224860 33,000 151 459 0
2020-01-28 13:32:01 GMT 40.310165 14.220459 33,000 151 460 64
2020-01-28 13:31:53 GMT 40.323944 14.210571 33,000 151 462 128
2020-01-28 13:31:50 GMT 40.329834 14.206383 33,000 151 462 128
2020-01-28 13:31:44 GMT 40.341888 14.197707 33,000 151 464 0
2020-01-28 13:31:41 GMT 40.348640 14.192838 32,975 151 464 0
2020-01-28 13:31:34 GMT 40.360882 14.184099 33,000 151 464 0
2020-01-28 13:31:30 GMT 40.368240 14.178793 33,000 151 465 -64
2020-01-28 13:31:23 GMT 40.380661 14.169861 33,000 151 464 0
2020-01-28 13:31:20 GMT 40.386814 14.165434 33,000 151 464 -64
2020-01-28 13:31:12 GMT 40.401615 14.154760 33,025 151 463 0
2020-01-28 13:31:07 GMT 40.412231 14.147145 33,000 151 463 0
2020-01-28 13:31:02 GMT 40.432758 14.132288 33,000 151 464 128
2020-01-28 13:30:56 GMT 40.437561 14.128784 32,975 151 465 64
2020-01-28 13:30:53 GMT 40.437561 14.128784 33,000 151 465 64
2020-01-28 13:30:50 GMT 40.445251 14.123169 33,000 151 465 64
2020-01-28 13:30:46 GMT 40.450123 14.119679 32,975 151 465 0
2020-01-28 13:30:41 GMT 40.470840 14.104736 32,975 151 465 -64
2020-01-28 13:30:37 GMT 40.470840 14.104736 32,975 151 465 0
2020-01-28 13:30:32 GMT 40.476521 14.100640 33,000 151 465 0
2020-01-28 13:30:29 GMT 40.482880 14.096069 33,000 151 464 0
2020-01-28 13:30:26 GMT 40.489426 14.091370 33,000 151 464 0
2020-01-28 13:30:22 GMT 40.498032 14.085144 33,000 151 462 0
2020-01-28 13:30:19 GMT 40.502380 14.082092 33,000 151 462 -64
2020-01-28 13:30:15 GMT 40.509705 14.076782 33,000 151 461 -64
2020-01-28 13:30:12 GMT 40.514458 14.073424 33,000 151 461 -64
2020-01-28 13:30:09 GMT 40.521194 14.068542 33,000 151 460 -64
2020-01-28 13:30:02 GMT 40.540855 14.054385 33,025 151 459 0
2020-01-28 13:29:59 GMT 40.540855 14.054385 33,025 151 459 0
2020-01-28 13:29:52 GMT 40.552727 14.045771 33,000 151 459 64
2020-01-28 13:29:48 GMT 40.559101 14.041152 33,000 151 459 0
2020-01-28 13:29:44 GMT 40.568207 14.034546 33,000 151 459 64
2020-01-28 13:29:41 GMT 40.573013 14.031006 33,000 151 460 64
2020-01-28 13:29:38 GMT 40.578423 14.027107 33,000 151 460 64
2020-01-28 13:29:32 GMT 40.591690 14.017517 33,000 151 461 0
2020-01-28 13:29:28 GMT 40.597183 14.013498 33,000 151 461 0
2020-01-28 13:29:23 GMT 40.605606 14.007446 33,000 151 462 0
2020-01-28 13:29:20 GMT 40.611195 14.003324 33,000 151 462 0
2020-01-28 13:29:17 GMT 40.616776 13.999329 33,000 151 462 0
2020-01-28 13:29:11 GMT 40.629272 13.990234 33,000 151 462 0
2020-01-28 13:29:08 GMT 40.635727 13.985596 33,000 150 461 0
2020-01-28 13:29:03 GMT 40.644287 13.979370 33,000 150 461 0
2020-01-28 13:29:00 GMT 40.648994 13.975920 33,000 150 461 0
2020-01-28 13:28:57 GMT 40.654953 13.971558 33,000 150 461 0
2020-01-28 13:28:50 GMT 40.668686 13.961626 33,000 151 461 0
2020-01-28 13:28:47 GMT 40.674408 13.957458 33,000 151 461 0
2020-01-28 13:28:43 GMT 40.683723 13.950702 33,000 151 460 0
2020-01-28 13:28:40 GMT 40.686749 13.948454 33,000 151 460 0
2020-01-28 13:28:37 GMT 40.692535 13.944275 33,000 151 460 64
2020-01-28 13:28:29 GMT 40.706253 13.934285 33,000 151 461 0
2020-01-28 13:28:26 GMT 40.712120 13.930040 33,000 151 461 0
2020-01-28 13:28:22 GMT 40.721012 13.923610 33,000 151 461 0
2020-01-28 13:28:19 GMT 40.725723 13.920166 33,000 151 461 0
2020-01-28 13:28:16 GMT 40.731670 13.915808 33,000 151 461 0
2020-01-28 13:28:09 GMT 40.744308 13.906616 33,000 150 461 0
2020-01-28 13:28:06 GMT 40.749687 13.902699 33,000 150 461 64
2020-01-28 13:28:02 GMT 40.760147 13.895081 33,000 151 462 64
2020-01-28 13:27:59 GMT 40.764084 13.892212 33,000 151 462 64
2020-01-28 13:27:55 GMT 40.769989 13.887939 33,000 151 462 0
2020-01-28 13:27:49 GMT 40.782578 13.878723 33,000 151 462 0
2020-01-28 13:27:44 GMT 40.790653 13.872861 33,000 151 462 0
2020-01-28 13:27:38 GMT 40.802151 13.864496 33,000 150 461 -64
2020-01-28 13:27:35 GMT 40.807388 13.860718 33,000 150 461 -64
2020-01-28 13:27:28 GMT 40.820435 13.851196 33,025 151 460 -64
2020-01-28 13:27:25 GMT 40.826294 13.846863 33,025 151 460 -64
2020-01-28 13:27:19 GMT 40.838470 13.838013 33,025 150 459 0
2020-01-28 13:27:16 GMT 40.844925 13.833313 33,025 150 459 64
2020-01-28 13:27:08 GMT 40.858852 13.823110 33,000 150 461 0
2020-01-28 13:27:05 GMT 40.864563 13.818909 33,000 150 462 0
2020-01-28 13:26:58 GMT 40.877613 13.809315 33,000 150 463 64
2020-01-28 13:26:55 GMT 40.883514 13.804993 33,000 150 463 64
2020-01-28 13:26:48 GMT 40.896793 13.795208 33,000 150 464 64
2020-01-28 13:26:45 GMT 40.902191 13.791260 33,000 150 465 64
2020-01-28 13:26:37 GMT 40.917343 13.780151 33,000 150 465 64
2020-01-28 13:26:34 GMT 40.922024 13.776731 33,000 150 465 64
2020-01-28 13:26:27 GMT 40.935654 13.766724 33,000 151 466 0
2020-01-28 13:26:24 GMT 40.943893 13.760742 33,000 151 466 0
2020-01-28 13:26:17 GMT 40.954651 13.752869 33,000 151 466 0
2020-01-28 13:26:14 GMT 40.960011 13.748953 33,000 151 467 0
2020-01-28 13:26:07 GMT 40.973557 13.739075 33,000 151 467 64
2020-01-28 13:26:04 GMT 40.979980 13.734346 33,000 151 467 64
2020-01-28 13:25:57 GMT 40.994740 13.723484 33,000 150 468 0
2020-01-28 13:25:54 GMT 40.998322 13.720800 33,000 149 468 0
2020-01-28 13:25:47 GMT 41.011093 13.710815 33,000 148 469 -64
2020-01-28 13:25:44 GMT 41.017178 13.705819 33,000 147 471 -64
2020-01-28 13:25:37 GMT 41.031376 13.693709 33,000 146 472 0
2020-01-28 13:25:34 GMT 41.036133 13.689575 33,000 146 472 64
2020-01-28 13:25:27 GMT 41.047623 13.679382 33,000 146 472 0
2020-01-28 13:25:24 GMT 41.058609 13.669678 33,000 146 472 0
2020-01-28 13:25:16 GMT 41.069733 13.659851 33,000 146 472 0
2020-01-28 13:25:11 GMT 41.076004 13.654297 33,000 146 472 0
2020-01-28 13:25:06 GMT 41.085049 13.646268 33,000 146 474 64
2020-01-28 13:25:03 GMT 41.092117 13.640015 33,000 146 473 64
2020-01-28 13:24:55 GMT 41.106537 13.627258 33,000 146 474 64
2020-01-28 13:24:52 GMT 41.110474 13.623779 33,000 146 474 64
2020-01-28 13:24:44 GMT 41.126480 13.609564 33,000 146 475 0
2020-01-28 13:24:41 GMT 41.132172 13.604553 33,000 146 475 0
2020-01-28 13:24:36 GMT 41.140774 13.596954 33,000 146 475 -64
2020-01-28 13:24:33 GMT 41.161240 13.578796 33,000 146 475 -64
2020-01-28 13:24:25 GMT 41.161240 13.578796 33,000 146 475 -64
2020-01-28 13:24:22 GMT 41.166191 13.574420 33,025 146 474 0
2020-01-28 13:24:15 GMT 41.185139 13.557566 33,025 146 473 0
2020-01-28 13:24:12 GMT 41.185139 13.557566 33,000 146 473 -64
2020-01-28 13:24:05 GMT 41.197632 13.546448 33,000 146 472 0
2020-01-28 13:24:01 GMT 41.203949 13.540894 33,000 146 472 0
2020-01-28 13:23:55 GMT 41.215118 13.531006 33,000 146 472 64
2020-01-28 13:23:52 GMT 41.221756 13.525085 33,000 146 472 64
2020-01-28 13:23:44 GMT 41.234715 13.513558 33,000 146 473 64
2020-01-28 13:23:40 GMT 41.242302 13.506817 33,000 146 473 0
2020-01-28 13:23:37 GMT 41.251190 13.498901 33,000 146 473 0
2020-01-28 13:23:33 GMT 41.255859 13.494751 33,000 146 473 0
2020-01-28 13:23:29 GMT 41.262451 13.488892 33,000 146 473 0
2020-01-28 13:23:26 GMT 41.269089 13.482910 33,000 146 473 0
2020-01-28 13:23:19 GMT 41.279823 13.473296 33,000 146 473 64
2020-01-28 13:23:16 GMT 41.294304 13.460374 33,000 146 474 0
2020-01-28 13:23:13 GMT 41.294304 13.460374 33,000 146 474 0
2020-01-28 13:23:10 GMT 41.303799 13.451947 33,000 146 474 0
2020-01-28 13:23:03 GMT 41.310059 13.446350 33,000 146 474 0
2020-01-28 13:23:00 GMT 41.314785 13.442147 33,000 146 474 0
2020-01-28 13:22:54 GMT 41.326237 13.431910 33,000 146 475 0
2020-01-28 13:22:51 GMT 41.330986 13.427727 33,000 146 476 0
2020-01-28 13:22:48 GMT 41.337502 13.421860 33,000 146 476 0
2020-01-28 13:22:44 GMT 41.352448 13.408501 33,000 146 477 0
2020-01-28 13:22:40 GMT 41.352448 13.408501 33,000 146 477 0
2020-01-28 13:22:32 GMT 41.366413 13.395954 33,000 146 477 0
2020-01-28 13:22:29 GMT 41.373440 13.389712 33,000 146 477 0
2020-01-28 13:22:22 GMT 41.384567 13.379725 33,000 146 477 0
2020-01-28 13:22:19 GMT 41.390121 13.374731 33,000 146 477 64
2020-01-28 13:22:12 GMT 41.403282 13.362952 33,000 146 478 64
2020-01-28 13:22:09 GMT 41.409485 13.357377 33,000 146 478 64
2020-01-28 13:22:02 GMT 41.421761 13.346409 33,000 145 478 0
2020-01-28 13:21:59 GMT 41.429722 13.339255 33,000 145 478 0
2020-01-28 13:21:52 GMT 41.440662 13.329482 33,000 146 478 0
2020-01-28 13:21:48 GMT 41.447227 13.323606 33,000 146 478 0
2020-01-28 13:21:41 GMT 41.459469 13.312619 33,000 145 478 0
2020-01-28 13:21:38 GMT 41.466888 13.305941 33,000 145 478 64
2020-01-28 13:21:34 GMT 41.478424 13.295579 33,000 145 479 64
2020-01-28 13:21:27 GMT 41.485291 13.289400 32,975 145 479 64
2020-01-28 13:21:21 GMT 41.497742 13.278164 32,975 145 480 64
2020-01-28 13:21:16 GMT 41.506489 13.270335 33,000 146 479 0
2020-01-28 13:21:13 GMT 41.518124 13.259923 33,000 146 479 0
2020-01-28 13:21:06 GMT 41.524597 13.254111 33,000 146 478 -64
2020-01-28 13:21:02 GMT 41.531998 13.247468 33,000 146 477 -64
2020-01-28 13:20:56 GMT 41.543076 13.237503 33,000 145 476 0
2020-01-28 13:20:52 GMT 41.550480 13.230861 33,025 145 475 -64
2020-01-28 13:20:46 GMT 41.561047 13.221343 33,025 145 475 0
2020-01-28 13:20:42 GMT 41.568542 13.214573 33,025 145 475 0
2020-01-28 13:20:39 GMT 41.573151 13.210421 33,025 145 474 0
2020-01-28 13:20:36 GMT 41.580273 13.204033 33,000 145 475 64
2020-01-28 13:20:31 GMT 41.588013 13.197015 33,000 145 475 64
2020-01-28 13:20:26 GMT 41.598999 13.187152 33,000 145 475 128
2020-01-28 13:20:21 GMT 41.607101 13.179786 33,000 145 476 64
2020-01-28 13:20:18 GMT 41.624496 13.164118 33,000 145 477 0
2020-01-28 13:20:12 GMT 41.624496 13.164118 33,000 145 478 64
2020-01-28 13:20:06 GMT 41.638695 13.151274 33,000 145 478 0
2020-01-28 13:20:01 GMT 41.646744 13.143956 33,000 145 478 0
2020-01-28 13:19:57 GMT 41.662537 13.129723 33,000 145 477 64
2020-01-28 13:19:51 GMT 41.662537 13.129723 33,000 145 477 64
2020-01-28 13:19:47 GMT 41.669540 13.123356 33,000 145 477 64
2020-01-28 13:19:42 GMT 41.681477 13.112566 33,000 145 476 64
2020-01-28 13:19:39 GMT 41.684235 13.110060 33,000 145 476 64
2020-01-28 13:19:36 GMT 41.688461 13.106242 33,000 145 477 0
2020-01-28 13:19:33 GMT 41.695587 13.099761 33,000 145 476 64
2020-01-28 13:19:30 GMT 41.699402 13.096278 33,000 145 476 64
2020-01-28 13:19:27 GMT 41.707779 13.088613 33,000 145 476 64
2020-01-28 13:19:23 GMT 41.714298 13.082737 33,000 145 476 64
2020-01-28 13:19:19 GMT 41.722210 13.075519 32,975 145 476 64
2020-01-28 13:19:16 GMT 41.725937 13.072134 32,975 145 476 64
2020-01-28 13:19:10 GMT 41.736549 13.062489 32,975 145 476 0
2020-01-28 13:19:06 GMT 41.744789 13.055015 32,975 145 476 0
2020-01-28 13:19:03 GMT 41.750015 13.050260 32,975 145 475 -64
2020-01-28 13:19:00 GMT 41.755680 13.045115 33,000 145 475 -64
2020-01-28 13:18:56 GMT 41.762756 13.038728 33,000 145 474 -64
2020-01-28 13:18:52 GMT 41.769276 13.032787 33,000 145 472 0
2020-01-28 13:18:49 GMT 41.773884 13.028635 33,000 145 472 -64
2020-01-28 13:18:46 GMT 41.780914 13.022248 33,000 145 467 -64
2020-01-28 13:18:43 GMT 41.788219 13.015605 33,000 145 469 -64
2020-01-28 13:18:40 GMT 41.791714 13.012411 33,000 145 467 -64
2020-01-28 13:18:36 GMT 41.799728 13.005191 33,000 145 467 -64
2020-01-28 13:18:32 GMT 41.806236 12.999253 33,025 145 467 0
2020-01-28 13:18:27 GMT 41.814011 12.992144 33,025 145 466 -64
2020-01-28 13:18:24 GMT 41.820576 12.986159 33,025 145 466 -64
2020-01-28 13:18:20 GMT 41.827927 12.979535 33,025 145 465 -64
2020-01-28 13:18:17 GMT 41.832367 12.975478 33,025 145 465 0
2020-01-28 13:18:13 GMT 41.838593 12.969797 33,025 145 465 -64
2020-01-28 13:18:09 GMT 41.855442 12.954478 33,000 145 465 64
2020-01-28 13:18:04 GMT 41.855442 12.954478 33,000 145 465 128
2020-01-28 13:18:00 GMT 41.861664 12.948761 32,975 145 467 64
2020-01-28 13:17:57 GMT 41.868439 12.942644 33,000 145 467 64
2020-01-28 13:17:54 GMT 41.875443 12.936277 33,000 145 469 64
2020-01-28 13:17:49 GMT 41.882446 12.929847 33,000 145 469 0
2020-01-28 13:17:46 GMT 41.887146 12.925607 33,000 145 469 0
2020-01-28 13:17:43 GMT 41.892654 12.920546 33,000 145 469 0
2020-01-28 13:17:39 GMT 41.901436 12.912576 33,025 145 469 0
2020-01-28 13:17:34 GMT 41.918472 12.897013 33,025 145 469 0
2020-01-28 13:17:29 GMT 41.918472 12.897013 33,025 145 469 0
2020-01-28 13:17:26 GMT 41.923317 12.892648 33,025 145 469 0
2020-01-28 13:17:23 GMT 41.929779 12.886713 33,025 145 470 0
2020-01-28 13:17:19 GMT 41.937103 12.880034 33,025 145 470 64
2020-01-28 13:17:16 GMT 41.941845 12.875721 33,025 145 470 64
2020-01-28 13:17:13 GMT 41.947586 12.870483 33,000 145 472 64
2020-01-28 13:17:08 GMT 41.956135 12.862691 32,975 145 474 128
2020-01-28 13:17:05 GMT 41.960606 12.858603 33,000 145 474 64
2020-01-28 13:17:02 GMT 41.966518 12.853174 33,000 145 476 128
2020-01-28 13:16:58 GMT 41.974895 12.845509 32,975 145 479 128
2020-01-28 13:16:53 GMT 41.984859 12.836311 32,975 145 479 128
2020-01-28 13:16:48 GMT 42.001328 12.821170 32,975 145 480 0
2020-01-28 13:16:44 GMT 42.001328 12.821170 33,000 145 480 0
2020-01-28 13:16:38 GMT 42.011395 12.811975 33,000 145 480 0
2020-01-28 13:16:35 GMT 42.016983 12.806875 33,000 145 480 0
2020-01-28 13:16:32 GMT 42.022427 12.801883 33,000 145 480 0
2020-01-28 13:16:27 GMT 42.031494 12.793517 33,000 145 479 0
2020-01-28 13:16:24 GMT 42.036251 12.789172 33,000 145 479 0
2020-01-28 13:16:21 GMT 42.042206 12.783716 33,000 145 479 0
2020-01-28 13:16:17 GMT 42.050034 12.776475 33,000 145 479 64
2020-01-28 13:16:13 GMT 42.057587 12.769547 33,000 145 479 0
2020-01-28 13:16:07 GMT 42.073170 12.755255 33,000 145 481 0
2020-01-28 13:16:01 GMT 42.079285 12.749571 33,000 145 481 0
2020-01-28 13:15:56 GMT 42.095188 12.734943 33,000 145 479 0
2020-01-28 13:15:53 GMT 42.095188 12.734943 33,000 145 479 0
2020-01-28 13:15:46 GMT 42.106777 12.724340 33,000 145 479 0
2020-01-28 13:15:42 GMT 42.113808 12.717825 33,000 145 479 64
2020-01-28 13:15:38 GMT 42.121162 12.711054 33,000 145 479 64
2020-01-28 13:15:35 GMT 42.126068 12.706562 33,000 145 479 64
2020-01-28 13:15:32 GMT 42.132011 12.701090 33,000 145 479 0
2020-01-28 13:15:26 GMT 42.143135 12.690870 33,000 145 479 0
2020-01-28 13:15:23 GMT 42.147675 12.686712 33,000 145 479 0
2020-01-28 13:15:20 GMT 42.156555 12.678535 33,000 145 479 0
2020-01-28 13:15:16 GMT 42.166443 12.669421 33,000 145 479 0
2020-01-28 13:15:13 GMT 42.173069 12.663276 33,000 145 479 0
2020-01-28 13:15:09 GMT 42.179680 12.657144 33,000 145 478 0
2020-01-28 13:15:06 GMT 42.179680 12.657144 33,000 145 479 0
2020-01-28 13:15:03 GMT 42.185623 12.651693 33,000 145 478 0
2020-01-28 13:15:00 GMT 42.192261 12.645513 33,000 145 474 -64
2020-01-28 13:14:57 GMT 42.195831 12.642205 33,000 145 478 0
2020-01-28 13:14:54 GMT 42.200813 12.637599 33,000 145 478 0
2020-01-28 13:14:51 GMT 42.207504 12.631406 33,000 145 478 0
2020-01-28 13:14:47 GMT 42.214600 12.624789 33,000 145 477 0
2020-01-28 13:14:43 GMT 42.221970 12.617985 33,000 145 477 0
2020-01-28 13:14:40 GMT 42.227489 12.612880 33,000 145 476 64
2020-01-28 13:14:35 GMT 42.247330 12.594514 33,000 145 476 64
2020-01-28 13:14:30 GMT 42.247330 12.594514 33,000 145 476 0
2020-01-28 13:14:25 GMT 42.254700 12.587710 33,000 145 476 0
2020-01-28 13:14:22 GMT 42.259933 12.582923 33,000 145 476 0
2020-01-28 13:14:18 GMT 42.266357 12.576918 33,000 145 476 0
2020-01-28 13:14:14 GMT 42.275894 12.568110 33,000 145 476 0
2020-01-28 13:14:11 GMT 42.279236 12.565051 33,000 145 475 -64
2020-01-28 13:14:08 GMT 42.284748 12.559928 33,025 145 475 -64
2020-01-28 13:14:04 GMT 42.299549 12.546259 33,025 145 474 -64
2020-01-28 13:14:00 GMT 42.299549 12.546259 33,025 145 474 -64
2020-01-28 13:13:57 GMT 42.305878 12.540394 33,025 145 474 0
2020-01-28 13:13:54 GMT 42.310211 12.536359 33,025 145 474 -64
2020-01-28 13:13:50 GMT 42.323868 12.523665 33,000 145 477 64
2020-01-28 13:13:47 GMT 42.328602 12.519304 33,000 145 475 0
2020-01-28 13:13:40 GMT 42.338840 12.509723 33,000 145 477 64
2020-01-28 13:13:34 GMT 42.348587 12.500694 33,000 145 477 0
2020-01-28 13:13:28 GMT 42.357182 12.492733 33,000 145 478 -64
2020-01-28 13:13:25 GMT 42.365097 12.485387 33,000 145 479 64
2020-01-28 13:13:21 GMT 42.373013 12.477978 33,000 145 480 0
2020-01-28 13:13:18 GMT 42.381546 12.470107 33,000 145 480 0
2020-01-28 13:13:15 GMT 42.381546 12.470107 33,000 145 481 0
2020-01-28 13:13:09 GMT 42.391937 12.460431 33,000 145 482 64
2020-01-28 13:13:03 GMT 42.403107 12.450132 33,000 145 482 64
2020-01-28 13:12:58 GMT 42.414642 12.439395 33,000 145 484 64
2020-01-28 13:12:53 GMT 42.421783 12.432778 33,000 145 485 0
2020-01-28 13:12:48 GMT 42.431202 12.424068 33,000 145 485 0
2020-01-28 13:12:45 GMT 42.437210 12.418421 33,000 145 485 0
2020-01-28 13:12:42 GMT 42.441956 12.413976 33,000 145 485 0
2020-01-28 13:12:38 GMT 42.449123 12.407269 33,000 145 484 0
2020-01-28 13:12:34 GMT 42.462204 12.395013 33,000 145 484 0
2020-01-28 13:12:28 GMT 42.467510 12.389959 33,000 145 485 0
2020-01-28 13:12:25 GMT 42.473099 12.384775 33,000 145 485 64
2020-01-28 13:12:22 GMT 42.478729 12.379484 33,000 145 485 64
2020-01-28 13:12:18 GMT 42.487019 12.371755 33,000 145 486 0
2020-01-28 13:12:12 GMT 42.497818 12.361599 33,000 145 488 0
2020-01-28 13:12:07 GMT 42.512527 12.347866 33,000 145 490 0
2020-01-28 13:12:01 GMT 42.517410 12.343264 33,000 145 490 0
2020-01-28 13:11:56 GMT 42.528217 12.333175 33,000 145 490 0
2020-01-28 13:11:52 GMT 42.535755 12.326085 33,000 145 490 64
2020-01-28 13:11:47 GMT 42.546745 12.315802 33,000 145 490 64
2020-01-28 13:11:44 GMT 42.550282 12.312480 32,975 145 490 64
2020-01-28 13:11:41 GMT 42.555130 12.307933 33,000 145 490 128
2020-01-28 13:11:35 GMT 42.566391 12.297384 32,975 145 490 64
2020-01-28 13:11:32 GMT 42.574356 12.289956 32,975 145 490 64
2020-01-28 13:11:28 GMT 42.582596 12.282215 32,975 145 490 0
2020-01-28 13:11:24 GMT 42.588036 12.277094 33,000 145 489 -64
2020-01-28 13:11:21 GMT 42.592896 12.272602 33,000 145 489 -64
2020-01-28 13:11:16 GMT 42.604980 12.261304 33,025 145 488 -128
2020-01-28 13:11:11 GMT 42.612167 12.254625 33,025 145 494 192
2020-01-28 13:11:05 GMT 42.623566 12.243951 33,025 145 485 -64
2020-01-28 13:11:01 GMT 42.635101 12.233212 33,025 145 494 192
2020-01-28 13:10:55 GMT 42.642593 12.226250 33,025 145 485 64
2020-01-28 13:10:51 GMT 42.649475 12.219793 33,025 145 487 64
2020-01-28 13:10:44 GMT 42.662193 12.207855 33,000 145 489 64
2020-01-28 13:10:40 GMT 42.668709 12.201723 32,975 145 494 192
2020-01-28 13:10:37 GMT 42.675880 12.194952 32,975 144 492 128
2020-01-28 13:10:34 GMT 42.680630 12.190353 32,975 144 493 192
2020-01-28 13:10:31 GMT 42.687889 12.183455 32,975 144 493 128
2020-01-28 13:10:26 GMT 42.695477 12.176237 32,975 145 494 128
2020-01-28 13:10:22 GMT 42.702785 12.169338 32,975 144 495 -256
2020-01-28 13:10:18 GMT 42.710423 12.162057 32,975 145 495 0
2020-01-28 13:10:14 GMT 42.719055 12.153938 33,000 145 493 128
2020-01-28 13:10:10 GMT 42.725597 12.147749 33,000 145 491 -128
2020-01-28 13:10:05 GMT 42.740124 12.134080 33,000 145 491 -64
2020-01-28 13:09:59 GMT 42.745148 12.129343 33,000 145 490 128
2020-01-28 13:09:56 GMT 42.752132 12.122774 33,000 145 489 -64
2020-01-28 13:09:52 GMT 42.758556 12.116706 33,000 145 489 64
2020-01-28 13:09:49 GMT 42.764053 12.111490 33,000 145 487 -192
2020-01-28 13:09:42 GMT 42.780853 12.095628 33,000 145 487 -128
2020-01-28 13:09:39 GMT 42.783508 12.093138 33,000 145 487 -64
2020-01-28 13:09:35 GMT 42.795567 12.081767 33,025 145 485 -128
2020-01-28 13:09:29 GMT 42.807671 12.070334 33,025 145 485 -128
2020-01-28 13:09:22 GMT 42.819809 12.058836 33,025 144 484 0
2020-01-28 13:09:15 GMT 42.827911 12.051108 33,025 144 484 64
2020-01-28 13:09:12 GMT 42.834686 12.044720 33,025 144 484 0
2020-01-28 13:09:09 GMT 42.838440 12.041143 33,000 145 485 0
2020-01-28 13:09:03 GMT 42.850822 12.029375 33,000 144 489 64
2020-01-28 13:09:00 GMT 42.855896 12.024536 33,000 145 489 64
2020-01-28 13:08:57 GMT 42.860458 12.020193 33,000 144 489 64
2020-01-28 13:08:52 GMT 42.870895 12.010228 32,975 144 491 192
2020-01-28 13:08:48 GMT 42.876751 12.004722 32,975 145 491 128
2020-01-28 13:08:45 GMT 42.884293 11.997528 32,975 145 491 128
2020-01-28 13:08:41 GMT 42.891083 11.991066 32,975 145 491 128
2020-01-28 13:08:38 GMT 42.895187 11.987130 33,000 145 491 0
2020-01-28 13:08:32 GMT 42.908661 11.974395 33,000 145 491 64
2020-01-28 13:08:28 GMT 42.914738 11.968624 33,000 145 489 0
2020-01-28 13:08:24 GMT 42.922188 11.961496 33,000 145 488 -128
2020-01-28 13:08:21 GMT 42.927704 11.956319 33,000 145 487 0
2020-01-28 13:08:18 GMT 42.933174 11.951098 33,000 145 487 0
2020-01-28 13:08:14 GMT 42.941414 11.943316 33,000 145 484 -64
2020-01-28 13:08:11 GMT 42.946976 11.938051 33,000 145 484 0
2020-01-28 13:08:08 GMT 42.951702 11.933507 33,000 145 484 64
2020-01-28 13:08:02 GMT 42.962875 11.922913 33,000 145 483 64
2020-01-28 13:07:59 GMT 42.975266 11.911096 33,000 145 484 0
2020-01-28 13:07:53 GMT 42.984798 11.902052 33,000 145 484 0
2020-01-28 13:07:50 GMT 42.984798 11.902052 33,000 144 484 0
2020-01-28 13:07:47 GMT 42.990509 11.896597 33,000 144 484 0
2020-01-28 13:07:43 GMT 42.997650 11.889762 33,000 145 484 -128
2020-01-28 13:07:40 GMT 43.009094 11.878903 33,000 145 484 0
2020-01-28 13:07:33 GMT 43.016556 11.871813 33,000 144 483 -64
2020-01-28 13:07:30 GMT 43.021809 11.866738 33,000 144 483 0
2020-01-28 13:07:26 GMT 43.030746 11.858208 33,025 145 483 -64
2020-01-28 13:07:23 GMT 43.034637 11.854504 33,025 145 482 0
2020-01-28 13:07:20 GMT 43.040382 11.849016 33,000 145 481 0
2020-01-28 13:07:17 GMT 43.045761 11.843900 33,000 145 481 0
2020-01-28 13:07:13 GMT 43.053360 11.836619 33,000 144 482 64
2020-01-28 13:07:10 GMT 43.058540 11.831687 33,000 144 482 0
2020-01-28 13:07:06 GMT 43.064869 11.825671 33,000 144 482 0
2020-01-28 13:07:03 GMT 43.072552 11.818281 33,000 144 482 0
2020-01-28 13:06:59 GMT 43.078720 11.812347 33,000 144 481 0
2020-01-28 13:06:56 GMT 43.084003 11.807295 33,000 144 481 0
2020-01-28 13:06:52 GMT 43.091637 11.799970 33,000 144 481 0
2020-01-28 13:06:49 GMT 43.101273 11.790750 33,000 144 481 0
2020-01-28 13:06:43 GMT 43.106506 11.785711 33,000 144 481 0
2020-01-28 13:06:40 GMT 43.114883 11.777727 33,000 144 481 0
2020-01-28 13:06:37 GMT 43.119431 11.773355 33,000 144 481 64
2020-01-28 13:06:31 GMT 43.128983 11.764186 33,000 144 481 64
2020-01-28 13:06:28 GMT 43.136765 11.756712 33,000 144 481 0
2020-01-28 13:06:20 GMT 43.149082 11.744908 33,000 144 480 64
2020-01-28 13:06:16 GMT 43.156437 11.737845 33,000 144 481 0
2020-01-28 13:06:13 GMT 43.161942 11.732568 33,000 144 481 0
2020-01-28 13:06:10 GMT 43.167423 11.727251 33,000 144 481 64
2020-01-28 13:06:04 GMT 43.180115 11.715130 33,000 144 480 64
2020-01-28 13:05:59 GMT 43.189304 11.706325 33,000 144 480 128
2020-01-28 13:05:55 GMT 43.195679 11.700248 33,000 144 480 64
2020-01-28 13:05:51 GMT 43.202820 11.693349 32,975 144 480 64
2020-01-28 13:05:48 GMT 43.208298 11.688145 32,975 144 481 0
2020-01-28 13:05:43 GMT 43.217468 11.679297 33,000 144 481 0
2020-01-28 13:05:39 GMT 43.224335 11.672718 33,000 144 481 0
2020-01-28 13:05:36 GMT 43.231384 11.665947 33,000 144 480 0
2020-01-28 13:05:32 GMT 43.241455 11.656239 33,000 144 478 0
2020-01-28 13:05:29 GMT 43.241455 11.656239 33,000 144 480 64
2020-01-28 13:05:25 GMT 43.249878 11.648127 33,000 144 479 0
2020-01-28 13:05:19 GMT 43.260086 11.638226 33,000 144 479 0
2020-01-28 13:05:13 GMT 43.277664 11.621236 33,000 144 478 0
2020-01-28 13:05:05 GMT 43.286224 11.612996 33,025 144 477 -64
2020-01-28 13:05:02 GMT 43.291302 11.608102 33,025 144 477 -64
2020-01-28 13:04:59 GMT 43.296616 11.602968 33,000 144 477 0
2020-01-28 13:04:56 GMT 43.301262 11.598489 33,000 144 479 -64
2020-01-28 13:04:53 GMT 43.307877 11.592109 33,000 144 476 64
2020-01-28 13:04:48 GMT 43.316669 11.583644 33,000 144 477 64
2020-01-28 13:04:45 GMT 43.322910 11.577563 33,000 144 477 0
2020-01-28 13:04:41 GMT 43.328430 11.572244 33,000 144 477 64
2020-01-28 13:04:38 GMT 43.333801 11.567099 33,000 144 478 0
2020-01-28 13:04:32 GMT 43.346970 11.554296 33,000 144 479 -64
2020-01-28 13:04:27 GMT 43.354523 11.546950 33,025 144 479 0
2020-01-28 13:04:24 GMT 43.360104 11.541595 33,025 144 479 64
2020-01-28 13:04:20 GMT 43.371597 11.530343 33,025 144 479 128
2020-01-28 13:04:14 GMT 43.384918 11.517399 33,000 144 480 192
2020-01-28 13:04:07 GMT 43.391235 11.511245 32,975 144 482 128
2020-01-28 13:04:02 GMT 43.399254 11.503536 32,975 144 482 128
2020-01-28 13:03:59 GMT 43.405655 11.497320 32,975 144 483 0
2020-01-28 13:03:56 GMT 43.410988 11.492157 33,000 144 484 -64
2020-01-28 13:03:53 GMT 43.416779 11.486525 33,000 144 484 -64
2020-01-28 13:03:49 GMT 43.424149 11.479372 33,000 144 483 -64
2020-01-28 13:03:46 GMT 43.429699 11.473977 33,025 144 483 0
2020-01-28 13:03:43 GMT 43.435043 11.468832 33,025 144 483 0
2020-01-28 13:03:40 GMT 43.441360 11.462700 33,025 144 482 0
2020-01-28 13:03:37 GMT 43.445663 11.458485 33,025 144 481 64
2020-01-28 13:03:33 GMT 43.455257 11.449193 33,000 144 482 64
2020-01-28 13:03:29 GMT 43.460449 11.444113 32,975 144 484 64
2020-01-28 13:03:26 GMT 43.466057 11.438664 33,000 144 485 0
2020-01-28 13:03:23 GMT 43.470795 11.434085 32,975 144 484 64
2020-01-28 13:03:20 GMT 43.476578 11.428462 33,000 144 485 64
2020-01-28 13:03:16 GMT 43.484848 11.420480 32,975 144 487 0
2020-01-28 13:03:11 GMT 43.492584 11.412943 33,000 144 488 0
2020-01-28 13:03:08 GMT 43.499294 11.406424 33,000 144 488 -64
2020-01-28 13:03:05 GMT 43.504028 11.401828 33,000 144 488 -64
2020-01-28 13:03:02 GMT 43.511444 11.394611 33,000 144 488 -64
2020-01-28 13:02:58 GMT 43.516380 11.389814 33,025 144 488 -128
2020-01-28 13:02:55 GMT 43.522980 11.383369 33,025 144 487 -64
2020-01-28 13:02:52 GMT 43.533600 11.372957 33,025 144 487 0
2020-01-28 13:02:46 GMT 43.539425 11.367253 33,025 144 486 0
2020-01-28 13:02:42 GMT 43.551178 11.355839 33,025 144 486 0
2020-01-28 13:02:39 GMT 43.557533 11.349596 33,025 144 486 0
2020-01-28 13:02:36 GMT 43.557533 11.349596 33,000 144 486 64
2020-01-28 13:02:32 GMT 43.565075 11.342207 33,000 144 486 64
2020-01-28 13:02:29 GMT 43.576385 11.331155 33,000 144 489 64
2020-01-28 13:02:26 GMT 43.576385 11.331155 33,000 144 489 64
2020-01-28 13:02:22 GMT 43.592606 11.315279 33,000 144 490 64
2020-01-28 13:02:17 GMT 43.592606 11.315279 33,000 144 491 64
2020-01-28 13:02:12 GMT 43.602364 11.305651 33,000 144 491 64
2020-01-28 13:02:08 GMT 43.608170 11.300013 33,000 144 491 64
2020-01-28 13:02:05 GMT 43.614853 11.293434 33,000 144 491 64
2020-01-28 13:02:02 GMT 43.621628 11.286855 33,000 144 491 64
2020-01-28 13:01:57 GMT 43.631828 11.276877 33,000 144 489 0
2020-01-28 13:01:54 GMT 43.640213 11.268715 33,000 144 488 0
2020-01-28 13:01:48 GMT 43.651062 11.258112 33,000 144 486 -64
2020-01-28 13:01:45 GMT 43.651062 11.258112 33,000 144 486 -64
2020-01-28 13:01:40 GMT 43.660458 11.248888 33,000 144 486 0
2020-01-28 13:01:37 GMT 43.666031 11.243485 33,000 144 484 0
2020-01-28 13:01:30 GMT 43.678429 11.231297 33,000 144 481 64
2020-01-28 13:01:27 GMT 43.689693 11.220245 33,000 144 481 64
2020-01-28 13:01:21 GMT 43.695923 11.214103 32,975 144 481 0
2020-01-28 13:01:18 GMT 43.707001 11.203244 32,975 144 481 0
2020-01-28 13:01:15 GMT 43.707001 11.203244 32,975 144 481 -64
2020-01-28 13:01:11 GMT 43.723351 11.187221 33,000 144 481 0
2020-01-28 13:01:06 GMT 43.723351 11.187221 33,000 144 481 -64
2020-01-28 13:01:02 GMT 43.731354 11.179355 33,000 144 479 64
2020-01-28 13:00:59 GMT 43.736115 11.174693 33,000 144 478 0
2020-01-28 13:00:53 GMT 43.745270 11.165686 33,000 144 477 128
2020-01-28 13:00:50 GMT 43.752823 11.158277 33,000 144 477 64
2020-01-28 13:00:47 GMT 43.759010 11.152169 32,975 144 477 0
2020-01-28 13:00:44 GMT 43.769672 11.141706 32,975 144 478 64
2020-01-28 13:00:40 GMT 43.769672 11.141706 32,975 144 478 -128
2020-01-28 13:00:36 GMT 43.781433 11.130236 32,975 144 476 -128
2020-01-28 13:00:30 GMT 43.788479 11.123330 33,000 144 476 -128
2020-01-28 13:00:24 GMT 43.798626 11.113390 33,025 144 474 -192
2020-01-28 13:00:20 GMT 43.807800 11.104367 33,025 144 474 -256
2020-01-28 13:00:16 GMT 43.813381 11.098938 33,025 144 474 -64
2020-01-28 13:00:12 GMT 43.821533 11.090954 33,025 144 474 0
2020-01-28 13:00:09 GMT 43.825241 11.087249 33,000 144 485 -64
2020-01-28 13:00:05 GMT 43.833729 11.078862 33,025 144 475 -64
2020-01-28 13:00:02 GMT 43.837685 11.074938 33,025 144 475 -64
2020-01-28 12:59:58 GMT 43.846848 11.065915 33,000 144 477 -448
2020-01-28 12:59:55 GMT 43.852859 11.059897 33,000 144 481 -192
2020-01-28 12:59:51 GMT 43.858017 11.054801 33,000 144 485 -64
2020-01-28 12:59:48 GMT 43.863476 11.049369 33,000 144 485 -64
2020-01-28 12:59:45 GMT 43.869003 11.043879 33,025 144 486 0
2020-01-28 12:59:37 GMT 43.882599 11.030465 33,025 144 486 0
2020-01-28 12:59:34 GMT 43.889217 11.023865 33,025 144 488 64
2020-01-28 12:59:31 GMT 43.895550 11.017587 33,000 144 490 128
2020-01-28 12:59:28 GMT 43.900295 11.012878 33,000 144 490 128
2020-01-28 12:59:25 GMT 43.904709 11.008492 33,000 144 492 128
2020-01-28 12:59:22 GMT 43.910259 11.003004 33,000 144 492 128
2020-01-28 12:59:19 GMT 43.922501 10.990840 32,975 144 496 64
2020-01-28 12:59:13 GMT 43.927322 10.986009 32,975 144 496 64
2020-01-28 12:59:10 GMT 43.933815 10.979527 32,975 144 497 64
2020-01-28 12:59:07 GMT 43.940331 10.973118 33,000 144 498 0
2020-01-28 12:59:03 GMT 43.947006 10.966399 33,000 144 498 -64
2020-01-28 12:58:59 GMT 43.955505 10.958012 33,000 144 498 -64
2020-01-28 12:58:56 GMT 43.960022 10.953565 33,000 144 498 0
2020-01-28 12:58:53 GMT 43.965454 10.948131 33,000 144 497 -64
2020-01-28 12:58:49 GMT 43.972275 10.941361 33,025 144 496 0
2020-01-28 12:58:46 GMT 43.978130 10.935582 33,025 144 495 0
2020-01-28 12:58:43 GMT 43.985626 10.928127 33,025 144 495 0
2020-01-28 12:58:40 GMT 43.990402 10.923412 33,000 144 494 0
2020-01-28 12:58:37 GMT 43.996704 10.917140 33,000 144 494 64
2020-01-28 12:58:33 GMT 44.003082 10.910829 33,000 144 494 0
2020-01-28 12:58:27 GMT 44.015514 10.898503 33,000 144 494 0
2020-01-28 12:58:23 GMT 44.023567 10.890525 33,000 144 494 0
2020-01-28 12:58:19 GMT 44.028259 10.885854 33,000 144 494 0
2020-01-28 12:58:16 GMT 44.033901 10.880192 33,000 144 493 0
2020-01-28 12:58:13 GMT 44.040161 10.873974 33,025 144 493 -64
2020-01-28 12:58:10 GMT 44.045494 10.868617 33,025 144 493 -64
2020-01-28 12:58:07 GMT 44.052940 10.861228 33,025 144 493 0
2020-01-28 12:58:04 GMT 44.062500 10.851746 33,025 144 492 0
2020-01-28 12:58:01 GMT 44.062500 10.851746 33,025 144 492 64
2020-01-28 12:57:54 GMT 44.076279 10.838013 33,025 144 493 64
2020-01-28 12:57:50 GMT 44.082783 10.831473 33,025 144 494 128
2020-01-28 12:57:47 GMT 44.095505 10.818723 33,050 144 495 128
2020-01-28 12:57:43 GMT 44.095505 10.818723 33,000 144 496 128
2020-01-28 12:57:40 GMT 44.100937 10.813293 33,000 144 496 128
2020-01-28 12:57:36 GMT 44.111317 10.802961 33,000 144 497 64
2020-01-28 12:57:33 GMT 44.114090 10.800199 33,000 144 498 64
2020-01-28 12:57:30 GMT 44.119556 10.794721 33,000 144 498 64
2020-01-28 12:57:26 GMT 44.126263 10.788051 33,000 144 498 64
2020-01-28 12:57:23 GMT 44.132996 10.781356 33,000 144 498 0
2020-01-28 12:57:20 GMT 44.139496 10.774841 33,000 144 498 0
2020-01-28 12:57:17 GMT 44.144791 10.769610 33,000 144 498 0
2020-01-28 12:57:14 GMT 44.151260 10.763088 33,025 144 498 -64
2020-01-28 12:57:10 GMT 44.157124 10.757250 33,025 144 498 -64
2020-01-28 12:57:06 GMT 44.164993 10.749403 33,050 144 497 0
2020-01-28 12:57:03 GMT 44.170990 10.743415 33,050 144 497 0
2020-01-28 12:57:00 GMT 44.175884 10.738547 33,050 144 496 0
2020-01-28 12:56:57 GMT 44.182636 10.731746 33,050 144 495 64
2020-01-28 12:56:53 GMT 44.189255 10.725083 33,050 144 494 -192
2020-01-28 12:56:49 GMT 44.195755 10.718602 33,075 144 494 -384
2020-01-28 12:56:46 GMT 44.201862 10.712541 33,100 144 494 -1088
2020-01-28 12:56:42 GMT 44.209637 10.704770 33,125 144 494 -896
2020-01-28 12:56:39 GMT 44.215210 10.699180 33,200 144 497 -192
2020-01-28 12:56:36 GMT 44.220856 10.693583 33,225 144 498 -128
2020-01-28 12:56:32 GMT 44.229721 10.684793 33,225 144 498 64
2020-01-28 12:56:28 GMT 44.241623 10.672956 33,225 144 499 640
2020-01-28 12:56:25 GMT 44.241623 10.672956 33,200 144 500 960
2020-01-28 12:56:22 GMT 44.246506 10.668060 33,175 144 500 1152
2020-01-28 12:56:18 GMT 44.254189 10.660289 33,050 144 501 1920
2020-01-28 12:56:15 GMT 44.260437 10.654122 33,000 144 501 1856
2020-01-28 12:56:12 GMT 44.264988 10.649503 32,875 144 502 1792
2020-01-28 12:56:08 GMT 44.272900 10.641599 32,750 144 502 1792
2020-01-28 12:56:05 GMT 44.283646 10.630842 32,575 144 502 1792
2020-01-28 12:56:02 GMT 44.289276 10.625218 32,400 144 502 1856
2020-01-28 12:55:56 GMT 44.295853 10.618554 32,400 144 502 1920
2020-01-28 12:55:53 GMT 44.302834 10.611587 32,225 144 503 1984
2020-01-28 12:55:50 GMT 44.307674 10.606697 32,175 144 503 2048
2020-01-28 12:55:47 GMT 44.312897 10.601414 32,050 144 503 2048
2020-01-28 12:55:43 GMT 44.319809 10.594482 31,900 144 504 2240
2020-01-28 12:55:40 GMT 44.327591 10.586635 31,775 144 504 2368
2020-01-28 12:55:37 GMT 44.331894 10.582319 31,675 144 505 2304
2020-01-28 12:55:34 GMT 44.337330 10.576886 31,575 144 505 2176
2020-01-28 12:55:30 GMT 44.345707 10.568446 31,425 144 506 1920
2020-01-28 12:55:27 GMT 44.350754 10.563354 31,300 144 506 1728
2020-01-28 12:55:19 GMT 44.364944 10.549164 30,775 144 504 1984
2020-01-28 12:55:15 GMT 44.373505 10.540532 30,950 144 504 1920
2020-01-28 12:55:12 GMT 44.380234 10.533796 30,875 144 504 1920
2020-01-28 12:55:08 GMT 44.389389 10.524575 30,300 144 503 1984
2020-01-28 12:55:05 GMT 44.401806 10.512040 30,575 144 503 2048
2020-01-28 12:55:01 GMT 44.401806 10.512040 30,475 144 503 2048
2020-01-28 12:54:58 GMT 44.405762 10.508088 30,400 144 503 2048
2020-01-28 12:54:55 GMT 44.412003 10.501753 30,325 144 503 2048
2020-01-28 12:54:51 GMT 44.426697 10.486843 27,650 143 503 1792
2020-01-28 12:54:47 GMT 44.426697 10.486843 30,000 144 502 1728
2020-01-28 12:54:44 GMT 44.437088 10.476314 29,825 144 500 1536
2020-01-28 12:54:41 GMT 44.443233 10.470105 29,825 144 500 1536
2020-01-28 12:54:34 GMT 44.456543 10.456565 27,650 144 471 1344
2020-01-28 12:54:27 GMT 44.464142 10.448848 29,525 143 497 1088
2020-01-28 12:54:24 GMT 44.469212 10.443711 29,475 143 496 1152
2020-01-28 12:54:21 GMT 44.474762 10.438058 29,325 144 492 1600
2020-01-28 12:54:18 GMT 44.481037 10.431720 29,225 144 492 1600
2020-01-28 12:54:14 GMT 44.488483 10.424217 29,225 144 492 1600
2020-01-28 12:54:11 GMT 44.494171 10.418505 29,200 144 490 1536
2020-01-28 12:54:08 GMT 44.499424 10.413230 29,075 144 490 1472
2020-01-28 12:54:04 GMT 44.506592 10.405995 28,925 144 489 1536
2020-01-28 12:54:01 GMT 44.512573 10.399998 28,900 144 489 1408
2020-01-28 12:53:57 GMT 44.519623 10.392936 26,375 144 487 1472
2020-01-28 12:53:54 GMT 44.525494 10.386970 28,725 144 486 1472
2020-01-28 12:53:51 GMT 44.531219 10.381142 28,650 143 486 1600
2020-01-28 12:53:47 GMT 44.537567 10.374690 28,600 143 486 1728
2020-01-28 12:53:44 GMT 44.544296 10.367824 28,450 143 485 1472
2020-01-28 12:53:40 GMT 44.550026 10.361983 28,350 144 483 1216
2020-01-28 12:53:37 GMT 44.563065 10.348729 28,275 144 482 1088
2020-01-28 12:53:34 GMT 44.567993 10.343762 28,200 144 480 1216
2020-01-28 12:53:31 GMT 44.567993 10.343762 28,150 144 480 1344
2020-01-28 12:53:28 GMT 44.583218 10.328354 27,950 144 476 1408
2020-01-28 12:53:23 GMT 44.585964 10.325541 27,975 144 476 1408
2020-01-28 12:53:16 GMT 44.593227 10.318172 27,775 144 473 1408
2020-01-28 12:53:13 GMT 44.599365 10.311977 27,800 144 473 1344
2020-01-28 12:53:10 GMT 44.604725 10.306516 27,700 144 471 1344
2020-01-28 12:53:06 GMT 44.611057 10.300085 27,550 143 467 1216
2020-01-28 12:53:02 GMT 44.623077 10.287846 27,500 144 466 1216
2020-01-28 12:52:59 GMT 44.623077 10.287846 27,475 143 466 1280
2020-01-28 12:52:53 GMT 44.635311 10.275365 27,350 143 462 1408
2020-01-28 12:52:49 GMT 44.640793 10.269797 27,225 144 459 1728
2020-01-28 12:52:45 GMT 44.647751 10.262735 27,100 143 458 1728
2020-01-28 12:52:42 GMT 44.666824 10.243277 26,975 143 458 1984
2020-01-28 12:52:36 GMT 44.666824 10.243277 26,725 143 456 2112
2020-01-28 12:52:32 GMT 44.669151 10.240866 26,675 143 456 2176
2020-01-28 12:52:29 GMT 44.675583 10.234353 26,600 144 456 2048
2020-01-28 12:52:25 GMT 44.688995 10.220620 26,375 143 455 1664
2020-01-28 12:52:22 GMT 44.688995 10.220620 26,300 143 453 1408
2020-01-28 12:52:18 GMT 44.693035 10.216548 26,250 143 453 1472
2020-01-28 12:52:14 GMT 44.701042 10.208309 26,150 143 452 1472
2020-01-28 12:52:11 GMT 44.706673 10.202614 26,075 143 452 1472
2020-01-28 12:52:08 GMT 44.709885 10.199332 26,025 144 451 1472
2020-01-28 12:52:05 GMT 44.716232 10.192893 25,900 144 450 1472
2020-01-28 12:52:02 GMT 44.722961 10.186026 25,800 144 449 1472
2020-01-28 12:51:59 GMT 44.727764 10.181178 25,750 144 448 1472
2020-01-28 12:51:54 GMT 44.735458 10.173274 25,650 144 447 1472
2020-01-28 12:51:51 GMT 44.741402 10.167244 25,550 144 446 1472
2020-01-28 12:51:48 GMT 44.744568 10.164028 25,500 144 446 1472
2020-01-28 12:51:44 GMT 44.756763 10.151568 25,325 143 445 1472
2020-01-28 12:51:38 GMT 44.760956 10.147281 25,225 143 445 1472
2020-01-28 12:51:35 GMT 44.765350 10.142800 25,200 143 445 1472
2020-01-28 12:51:31 GMT 44.773224 10.134757 25,050 143 443 1472
2020-01-28 12:51:28 GMT 44.778442 10.129395 25,000 143 442 1472
2020-01-28 12:51:23 GMT 44.786224 10.121351 24,875 143 442 1408
2020-01-28 12:51:20 GMT 44.795517 10.111803 24,750 143 442 1536
2020-01-28 12:51:14 GMT 44.800476 10.106685 24,650 143 441 1536
2020-01-28 12:51:11 GMT 44.806274 10.100817 24,550 143 440 1536
2020-01-28 12:51:08 GMT 44.812180 10.094735 24,475 143 440 1408
2020-01-28 12:51:03 GMT 44.818542 10.088196 24,300 143 439 1472
2020-01-28 12:51:00 GMT 44.823662 10.082971 23,950 143 435 1536
2020-01-28 12:50:57 GMT 44.828522 10.077929 24,225 143 438 1472
2020-01-28 12:50:52 GMT 44.838181 10.067989 24,075 143 438 1472
2020-01-28 12:50:49 GMT 44.843071 10.063008 24,025 143 438 1536
2020-01-28 12:50:46 GMT 44.846237 10.059725 23,950 143 437 1600
2020-01-28 12:50:42 GMT 44.853172 10.052624 23,875 143 437 1600
2020-01-28 12:50:39 GMT 44.858093 10.047520 23,825 143 436 1536
2020-01-28 12:50:36 GMT 44.862347 10.043112 23,700 143 435 1344
2020-01-28 12:50:33 GMT 44.867203 10.038169 23,550 143 435 1472
2020-01-28 12:50:30 GMT 44.873840 10.031302 23,525 143 433 1536
2020-01-28 12:50:27 GMT 44.878639 10.026364 23,450 143 433 1472
2020-01-28 12:50:22 GMT 44.885715 10.019062 23,275 143 432 1536
2020-01-28 12:50:19 GMT 44.892231 10.012363 23,250 143 430 1536
2020-01-28 12:50:16 GMT 44.897865 10.006602 23,150 143 430 1536
2020-01-28 12:50:11 GMT 44.902817 10.001548 23,075 143 430 1536
2020-01-28 12:50:08 GMT 44.908619 9.995549 22,850 143 428 1472
2020-01-28 12:50:05 GMT 44.912796 9.991281 22,925 143 428 1472
2020-01-28 12:50:01 GMT 44.925247 9.978463 22,725 143 427 1536
2020-01-28 12:49:58 GMT 44.925247 9.978463 22,725 143 427 1472
2020-01-28 12:49:55 GMT 44.928680 9.974932 22,675 143 427 1472
2020-01-28 12:49:52 GMT 44.933475 9.969959 22,600 143 425 1472
2020-01-28 12:49:49 GMT 44.944382 9.958779 22,425 143 425 1536
2020-01-28 12:49:39 GMT 44.956146 9.946579 22,250 143 425 1472
2020-01-28 12:49:36 GMT 44.959824 9.942761 22,200 143 425 1472
2020-01-28 12:49:31 GMT 44.967773 9.934518 22,000 143 424 1408
2020-01-28 12:49:28 GMT 44.972069 9.930100 22,025 143 424 1472
2020-01-28 12:49:25 GMT 44.976105 9.925951 21,850 143 422 1408
2020-01-28 12:49:22 GMT 44.982880 9.918954 21,825 143 422 1536
2020-01-28 12:49:19 GMT 44.987011 9.914692 21,750 143 421 1472
2020-01-28 12:49:15 GMT 44.992676 9.908818 21,675 143 421 1472
2020-01-28 12:49:12 GMT 44.996929 9.904376 21,525 143 420 1472
2020-01-28 12:49:09 GMT 45.001694 9.899466 21,475 143 420 1536
2020-01-28 12:49:06 GMT 45.016384 9.884212 21,275 143 419 1536
2020-01-28 12:49:00 GMT 45.016384 9.884212 21,275 143 419 1536
2020-01-28 12:48:57 GMT 45.020966 9.879521 21,200 143 418 1536
2020-01-28 12:48:54 GMT 45.025093 9.875235 21,150 143 418 1536
2020-01-28 12:48:51 GMT 45.035149 9.864785 20,975 143 417 1536
2020-01-28 12:48:45 GMT 45.040546 9.859225 20,875 143 417 1536
2020-01-28 12:48:39 GMT 45.049812 9.849578 20,725 143 417 1408
2020-01-28 12:48:36 GMT 45.054703 9.844535 20,625 143 417 1408
2020-01-28 12:48:28 GMT 45.065872 9.832898 20,550 143 417 1408
2020-01-28 12:48:24 GMT 45.072716 9.825797 20,425 143 416 1408
2020-01-28 12:48:20 GMT 45.078209 9.820103 20,300 143 415 1408
2020-01-28 12:48:16 GMT 45.090309 9.807576 20,125 143 413 1472
2020-01-28 12:48:10 GMT 45.097595 9.800001 20,050 143 413 1472
2020-01-28 12:48:07 GMT 45.097595 9.800001 19,950 143 412 1472
2020-01-28 12:48:04 GMT 45.104599 9.792742 19,875 143 412 1408
2020-01-28 12:48:01 GMT 45.107758 9.789472 19,800 143 410 1472
2020-01-28 12:47:58 GMT 45.112518 9.784464 19,800 143 410 1472
2020-01-28 12:47:55 GMT 45.118477 9.778301 19,675 143 409 1472
2020-01-28 12:47:49 GMT 45.130997 9.765305 19,525 143 408 1344
2020-01-28 12:47:46 GMT 45.130997 9.765305 19,450 143 409 1344
2020-01-28 12:47:43 GMT 45.136768 9.759276 19,400 143 409 1472
2020-01-28 12:47:40 GMT 45.139053 9.756931 19,325 143 409 1664
2020-01-28 12:47:37 GMT 45.144333 9.751413 19,275 143 409 1856
2020-01-28 12:47:34 GMT 45.149014 9.746615 19,200 143 409 2048
2020-01-28 12:47:31 GMT 45.153534 9.741930 19,150 143 405 2624
2020-01-28 12:47:27 GMT 45.159988 9.735260 18,900 143 407 2496
2020-01-28 12:47:23 GMT 45.165527 9.729505 18,825 143 406 2624
2020-01-28 12:47:19 GMT 45.171661 9.723162 18,575 143 404 2880
2020-01-28 12:47:15 GMT 45.178947 9.715599 18,450 143 404 2944
2020-01-28 12:47:12 GMT 45.184341 9.710018 18,150 143 402 2880
2020-01-28 12:47:07 GMT 45.194729 9.699253 17,875 143 402 2944
2020-01-28 12:47:04 GMT 45.198532 9.695238 17,700 143 401 3136
2020-01-28 12:46:58 GMT 45.202969 9.690611 17,525 143 400 3456
2020-01-28 12:46:54 GMT 45.209579 9.683711 17,325 143 401 3712
2020-01-28 12:46:50 GMT 45.215584 9.677414 17,025 143 401 4096
2020-01-28 12:46:44 GMT 45.224567 9.667902 16,600 143 403 4160
2020-01-28 12:46:41 GMT 45.228333 9.663914 16,425 143 406 3392
2020-01-28 12:46:38 GMT 45.234375 9.657506 16,175 143 405 3584
2020-01-28 12:46:35 GMT 45.237991 9.653713 15,925 143 405 3200
2020-01-28 12:46:29 GMT 45.252457 9.638606 15,650 143 404 2816
2020-01-28 12:46:26 GMT 45.252457 9.638606 15,550 143 403 2496
2020-01-28 12:46:23 GMT 45.255753 9.635141 15,275 143 398 1984
2020-01-28 12:46:20 GMT 45.262161 9.628470 15,300 143 398 1984
2020-01-28 12:46:17 GMT 45.266045 9.624492 15,225 143 396 1920
2020-01-28 12:46:13 GMT 45.277962 9.612099 14,950 143 392 2176
2020-01-28 12:46:09 GMT 45.281502 9.608348 14,925 143 389 2496
2020-01-28 12:46:03 GMT 45.292301 9.597027 14,600 143 386 2752
2020-01-28 12:45:58 GMT 45.292301 9.597027 14,425 143 383 2368
2020-01-28 12:45:55 GMT 45.297890 9.591198 14,325 143 380 2368
2020-01-28 12:45:52 GMT 45.306828 9.581820 14,150 143 378 2432
2020-01-28 12:45:49 GMT 45.306828 9.581820 14,025 143 374 2944
2020-01-28 12:45:45 GMT 45.314835 9.573379 13,875 143 373 3392
2020-01-28 12:45:38 GMT 45.320698 9.567283 13,525 143 372 3712
2020-01-28 12:45:35 GMT 45.324097 9.563664 13,225 143 371 3456
2020-01-28 12:45:31 GMT 45.329357 9.558172 13,150 143 371 3456
2020-01-28 12:45:28 GMT 45.335907 9.551370 12,875 143 369 3136
2020-01-28 12:45:25 GMT 45.339272 9.547856 12,750 143 369 3072
2020-01-28 12:45:22 GMT 45.343090 9.543837 12,625 143 368 2944
2020-01-28 12:45:17 GMT 45.349915 9.536787 12,400 143 366 2944
2020-01-28 12:45:12 GMT 45.356823 9.529501 12,125 143 363 2752
2020-01-28 12:45:08 GMT 45.362366 9.523708 11,350 143 359 2816
2020-01-28 12:45:04 GMT 45.367531 9.518247 11,700 143 358 2880
2020-01-28 12:45:01 GMT 45.370926 9.514683 11,625 143 357 2816
2020-01-28 12:44:55 GMT 45.379395 9.505790 11,350 143 352 2176
2020-01-28 12:44:52 GMT 45.382614 9.502504 11,200 143 349 1920
2020-01-28 12:44:49 GMT 45.387085 9.497811 11,125 143 344 1600
2020-01-28 12:44:46 GMT 45.390991 9.493728 11,075 143 341 1792
2020-01-28 12:44:43 GMT 45.394180 9.490356 11,000 143 338 1408
2020-01-28 12:44:40 GMT 45.397835 9.486493 10,925 143 334 1472
2020-01-28 12:44:36 GMT 45.403469 9.480531 10,825 143 325 1536
2020-01-28 12:44:33 GMT 45.406540 9.477277 10,750 143 323 1472
2020-01-28 12:44:30 GMT 45.410126 9.473497 10,675 143 318 1728
2020-01-28 12:44:27 GMT 45.414230 9.469169 10,600 143 313 1792
2020-01-28 12:44:24 GMT 45.418259 9.464918 10,450 143 308 2496
2020-01-28 12:44:20 GMT 45.422230 9.460702 10,300 143 305 2944
2020-01-28 12:44:16 GMT 45.426929 9.455678 10,075 143 302 3456
2020-01-28 12:44:13 GMT 45.430115 9.452297 9,900 142 300 3712
2020-01-28 12:44:10 GMT 45.433029 9.449180 7,600 142 300 3968
2020-01-28 12:44:07 GMT 45.439964 9.441811 9,475 143 298 3392
2020-01-28 12:44:04 GMT 45.439964 9.441811 9,350 143 300 3904
2020-01-28 12:44:01 GMT 45.444481 9.436988 8,950 143 299 4032
2020-01-28 12:43:57 GMT 45.449135 9.432098 8,950 143 299 3776
2020-01-28 12:43:54 GMT 45.451416 9.429753 8,475 143 294 3136
2020-01-28 12:43:50 GMT 45.456074 9.424863 8,425 143 296 3200
2020-01-28 12:43:47 GMT 45.459366 9.421430 7,975 144 292 3072
2020-01-28 12:43:44 GMT 45.462799 9.417899 8,125 144 292 3072
2020-01-28 12:43:40 GMT 45.470921 9.409522 7,700 143 285 2560
2020-01-28 12:43:36 GMT 45.470921 9.409522 7,725 143 284 2432
2020-01-28 12:43:33 GMT 45.477348 9.402689 7,600 143 283 2368
2020-01-28 12:43:30 GMT 45.477348 9.402689 7,525 139 277 1664
2020-01-28 12:43:26 GMT 45.481674 9.397598 7,350 134 276 1600
2020-01-28 12:43:23 GMT 45.484406 9.393834 7,300 131 274 1664
2020-01-28 12:43:17 GMT 45.488892 9.386117 7,175 125 270 1792
2020-01-28 12:43:14 GMT 45.494110 9.374869 6,875 122 259 2112
2020-01-28 12:43:06 GMT 45.496342 9.369931 6,800 123 252 2112
2020-01-28 12:43:03 GMT 45.498047 9.366237 6,700 123 249 1984
2020-01-28 12:43:00 GMT 45.500019 9.362093 6,300 126 228 2112
2020-01-28 12:42:56 GMT 45.502720 9.356466 6,400 125 234 1856
2020-01-28 12:42:53 GMT 45.504364 9.353158 6,325 125 229 2048
2020-01-28 12:42:46 GMT 45.509583 9.343153 5,675 124 208 1984
2020-01-28 12:42:43 GMT 45.510818 9.340864 5,950 127 217 2048
2020-01-28 12:42:40 GMT 45.512878 9.337006 5,850 126 212 1920
2020-01-28 12:42:35 GMT 45.515488 9.331774 5,700 124 208 1984
2020-01-28 12:42:32 GMT 45.516731 9.329000 5,375 62 212 2176
2020-01-28 12:42:29 GMT 45.518684 9.324177 5,500 103 212 2624
2020-01-28 12:42:25 GMT 45.519974 9.319676 5,200 100 213 2496
2020-01-28 12:42:22 GMT 45.520889 9.309474 4,950 90 215 2560
2020-01-28 12:42:15 GMT 45.520546 9.305286 4,775 73 215 2304
2020-01-28 12:42:12 GMT 45.519943 9.301802 4,775 73 215 2304
2020-01-28 12:42:08 GMT 45.518543 9.297046 4,600 62 212 2176
2020-01-28 12:42:02 GMT 45.515148 9.290280 4,325 40 204 2304
2020-01-28 12:41:59 GMT 45.512650 9.287175 4,225 32 201 2048
2020-01-28 12:41:52 GMT 45.507187 9.283246 4,075 13 186 576
2020-01-28 12:41:49 GMT 45.504364 9.282270 4,050 8 178 768
2020-01-28 12:41:45 GMT 45.500439 9.281505 4,000 5 168 1024
2020-01-28 12:41:41 GMT 45.498367 9.281224 3,925 5 162 1216
2020-01-28 12:41:35 GMT 45.493176 9.280500 3,750 5 151 1856
2020-01-28 12:41:32 GMT 45.490997 9.280178 3,650 4 149 1856
2020-01-28 12:41:27 GMT 45.487404 9.279763 3,450 5 145 2560
2020-01-28 12:41:24 GMT 45.486053 9.279562 3,300 4 145 2944
2020-01-28 12:41:21 GMT 45.484268 9.279327 3,300 4 145 2944
2020-01-28 12:41:17 GMT 45.481293 9.279066 3,000 3 146 3136
2020-01-28 12:41:14 GMT 45.479301 9.278825 2,825 3 148 3072
2020-01-28 12:41:11 GMT 45.477539 9.278673 2,700 3 149 3136
2020-01-28 12:41:03 GMT 45.471909 9.277758 2,275 13 151 3328
2020-01-28 12:41:00 GMT 45.470131 9.277150 2,125 14 152 3520
2020-01-28 12:36:07 GMT 45.434464 9.280014 0 264 12
2020-01-28 12:35:42 GMT 45.436043 9.280751 0 177 20
2020-01-28 12:35:35 GMT 45.436615 9.280701 0 174 18
2020-01-28 12:35:19 GMT 45.437881 9.280567 0 174 24
2020-01-28 12:34:49 GMT 45.441559 9.280165 0 177 25

Making use of Plane Finder data

You are free to use the raw flight data, aircraft information and images provided in this report for your own purposes provided the data is correctly attributed to Plane Finder. We ask that you please credit Plane Finder and link to planefinder.net in close proximity to the content.

Optionally one of the following logos (no smaller then 150x24px) can be used and must link to planefinder.net

Embedding the Plane Finder map

You are welcome to embed the Plane Finder playback map on your website to offer visitors a more interactive experience. We suggest using the following HTML code:

<iframe src="//planefinder.net/data/report/AZ1195-EI-IMB-7700-squawk-2020-01-28/map" width="800" height="600" seamless="seamless"></iframe>

Where our data comes from

Plane Finder has a global network of data feeds and antenna radars that receive data broadcast directly from aircraft. The primary technologies used are ADS-B and MLAT. We also show feeds from the FAA and a FLARM glider feed.

Click here to find out more about the Plane Finder network.

How we collect our data